createdAt,value
2024-02-15T00:00:01.105Z,95388.63
2024-02-15T00:02:32.236Z,95391.50
2024-02-15T00:04:59.368Z,95394.44
2024-02-15T00:07:27.514Z,95387.88
2024-02-15T00:09:57.293Z,95393.81
2024-02-15T00:12:24.299Z,95389.22
2024-02-15T00:14:51.764Z,95386.94
2024-02-15T00:17:19.367Z,95393.44
2024-02-15T00:19:47.988Z,95392.66
2024-02-15T00:22:15.257Z,95399.34
2024-02-15T00:24:43.913Z,95399.47
2024-02-15T00:27:12.383Z,95406.88
2024-02-15T00:29:41.632Z,95413.16
2024-02-15T00:32:09.382Z,95410.53
2024-02-15T00:34:37.432Z,95415.19
2024-02-15T00:37:05.792Z,95388.53
2024-02-15T00:39:33.141Z,95408.06
2024-02-15T00:42:01.614Z,95410.06
2024-02-15T00:44:29.103Z,95402.81
2024-02-15T00:46:57.229Z,95409.69
2024-02-15T00:49:24.722Z,95402.25
2024-02-15T00:51:51.939Z,95416.91
2024-02-15T00:54:18.980Z,95413.78
2024-02-15T00:56:46.178Z,95397.22
2024-02-15T00:59:13.216Z,95410.53
2024-02-15T01:01:40.295Z,95413.53
2024-02-15T01:04:07.469Z,95417.44
2024-02-15T01:06:34.886Z,95412.53
2024-02-15T01:09:04.950Z,95405.44
2024-02-15T01:11:36.947Z,95393.78
2024-02-15T01:14:04.646Z,95410.91
2024-02-15T01:16:31.941Z,95412.09
2024-02-15T01:18:59.372Z,95402.50
2024-02-15T01:21:26.960Z,95406.44
2024-02-15T01:23:55.129Z,95400.88
2024-02-15T01:26:22.377Z,95404.25
2024-02-15T01:28:49.622Z,95398.59
2024-02-15T01:31:18.611Z,95411.44
2024-02-15T01:33:49.467Z,95402.22
2024-02-15T01:36:17.837Z,95398.16
2024-02-15T01:38:46.135Z,95406.41
2024-02-15T01:41:13.406Z,95402.00
2024-02-15T01:43:45.994Z,95405.78
2024-02-15T01:46:13.389Z,95402.69
2024-02-15T01:48:41.959Z,95396.22
2024-02-15T01:51:11.454Z,95390.53
2024-02-15T01:53:39.971Z,95405.97
2024-02-15T01:56:08.248Z,95396.16
2024-02-15T01:58:37.344Z,95391.06
2024-02-15T02:01:06.452Z,95402.97
2024-02-15T02:03:33.672Z,95403.88
2024-02-15T02:06:01.991Z,95419.91
2024-02-15T02:08:29.237Z,95407.69
2024-02-15T02:10:56.297Z,95406.03
2024-02-15T02:13:23.555Z,95410.53
2024-02-15T02:15:50.916Z,95408.69
2024-02-15T02:18:18.107Z,95413.19
2024-02-15T02:20:46.894Z,95419.28
2024-02-15T02:23:21.298Z,95417.16
2024-02-15T02:25:50.324Z,95418.22
2024-02-15T02:28:20.191Z,95416.09
2024-02-15T02:30:47.755Z,95417.72
2024-02-15T02:33:23.375Z,95424.22
2024-02-15T02:35:50.785Z,95417.50
2024-02-15T02:38:17.993Z,95422.00
2024-02-15T02:40:45.214Z,95421.25
2024-02-15T02:43:12.254Z,95388.28
2024-02-15T02:45:39.606Z,95415.91
2024-02-15T02:48:06.974Z,95417.50
2024-02-15T02:50:34.417Z,95417.78
2024-02-15T02:53:01.590Z,95428.66
2024-02-15T02:55:29.148Z,95424.13
2024-02-15T02:57:56.639Z,95417.13
2024-02-15T03:00:24.315Z,95424.53
2024-02-15T03:02:51.607Z,95428.78
2024-02-15T03:05:22.368Z,95431.41
2024-02-15T03:07:52.806Z,95432.06
2024-02-15T03:10:20.318Z,95433.56
2024-02-15T03:12:50.249Z,95424.19
2024-02-15T03:15:19.452Z,95427.84
2024-02-15T03:17:49.408Z,95433.94
2024-02-15T03:20:23.509Z,95435.75
2024-02-15T03:22:54.662Z,95438.75
2024-02-15T03:25:25.198Z,95438.34
2024-02-15T03:27:57.127Z,95437.44
2024-02-15T03:30:26.616Z,95448.44
2024-02-15T03:32:54.617Z,95446.47
2024-02-15T03:35:24.392Z,95449.88
2024-02-15T03:37:52.297Z,95455.13
2024-02-15T03:40:24.248Z,95442.13
2024-02-15T03:42:51.727Z,95443.88
2024-02-15T03:45:19.026Z,95449.97
2024-02-15T03:47:47.769Z,95446.16
2024-02-15T03:50:16.373Z,95431.84
2024-02-15T03:52:45.037Z,95453.13
2024-02-15T03:55:12.212Z,95447.09
2024-02-15T03:57:44.943Z,95450.38
2024-02-15T04:00:14.971Z,95453.56
2024-02-15T04:02:42.862Z,95438.13
2024-02-15T04:05:13.780Z,95446.47
2024-02-15T04:07:41.256Z,95444.22
2024-02-15T04:10:09.766Z,95442.13
2024-02-15T04:12:50.117Z,95444.97
2024-02-15T04:15:19.103Z,95446.31
2024-02-15T04:17:47.226Z,95455.88
2024-02-15T04:20:16.596Z,95453.53
2024-02-15T04:22:44.895Z,95452.31
2024-02-15T04:25:17.695Z,95447.38
2024-02-15T04:27:48.044Z,95422.78
2024-02-15T04:30:17.255Z,95436.13
2024-02-15T04:32:44.874Z,95456.03
2024-02-15T04:35:14.789Z,95451.25
2024-02-15T04:37:43.153Z,95448.34
2024-02-15T04:40:12.117Z,95458.66
2024-02-15T04:42:42.063Z,95465.22
2024-02-15T04:45:11.860Z,95466.06
2024-02-15T04:47:53.799Z,95464.59
2024-02-15T04:50:22.248Z,95466.31
2024-02-15T04:52:51.167Z,95456.78
2024-02-15T04:55:19.209Z,95468.28
2024-02-15T04:57:48.613Z,95473.31
2024-02-15T05:00:16.656Z,95471.69
2024-02-15T05:02:45.823Z,95481.03
2024-02-15T05:05:14.768Z,95476.22
2024-02-15T05:07:44.533Z,95479.44
2024-02-15T05:10:11.983Z,95500.50
2024-02-15T05:12:41.501Z,95494.78
2024-02-15T05:15:12.715Z,95499.50
2024-02-15T05:17:44.544Z,95504.97
2024-02-15T05:20:13.429Z,95483.97
2024-02-15T05:22:43.930Z,95500.16
2024-02-15T05:25:13.777Z,95493.44
2024-02-15T05:27:40.956Z,95499.59
2024-02-15T05:30:08.632Z,95512.69
2024-02-15T05:32:43.078Z,95502.69
2024-02-15T05:35:14.055Z,95504.16
2024-02-15T05:37:41.174Z,95503.41
2024-02-15T05:40:08.776Z,95507.88
2024-02-15T05:42:36.176Z,95514.41
2024-02-15T05:45:30.803Z,95511.06
2024-02-15T05:47:58.049Z,95521.22
2024-02-15T05:50:25.730Z,95515.56
2024-02-15T05:52:54.285Z,95516.97
2024-02-15T05:55:21.438Z,95525.75
2024-02-15T05:57:48.550Z,95531.31
2024-02-15T06:00:22.715Z,95506.03
2024-02-15T06:02:51.925Z,95524.75
2024-02-15T06:05:21.345Z,95521.84
2024-02-15T06:07:49.002Z,95514.41
2024-02-15T06:10:16.909Z,95541.44
2024-02-15T06:12:44.405Z,95525.69
2024-02-15T06:15:17.116Z,95532.84
2024-02-15T06:17:45.802Z,95543.19
2024-02-15T06:20:15.373Z,95544.47
2024-02-15T06:22:43.433Z,95546.91
2024-02-15T06:25:11.708Z,95545.91
2024-02-15T06:27:42.024Z,95564.91
2024-02-15T06:30:29.878Z,95566.34
2024-02-15T06:33:15.508Z,95566.34
2024-02-15T06:36:01.978Z,95563.44
2024-02-15T06:38:47.747Z,95574.72
2024-02-15T06:41:15.108Z,95532.53
2024-02-15T06:43:42.673Z,95560.44
2024-02-15T06:46:11.958Z,95570.34
2024-02-15T06:48:39.440Z,95582.19
2024-02-15T06:51:07.432Z,95567.38
2024-02-15T06:53:34.783Z,95570.06
2024-02-15T06:56:03.811Z,95579.16
2024-02-15T06:58:31.198Z,95575.25
2024-02-15T07:00:58.230Z,95574.94
2024-02-15T07:03:25.443Z,95575.13
2024-02-15T07:05:52.571Z,95560.03
2024-02-15T07:08:19.767Z,95565.88
2024-02-15T07:10:46.950Z,95564.16
2024-02-15T07:13:13.933Z,95561.97
2024-02-15T07:15:41.227Z,95554.59
2024-02-15T07:18:08.679Z,95568.69
2024-02-15T07:20:35.972Z,95555.22
2024-02-15T07:23:03.217Z,95561.66
2024-02-15T07:25:30.413Z,95557.16
2024-02-15T07:27:57.870Z,95542.31
2024-02-15T07:30:26.406Z,95559.94
2024-02-15T07:32:53.900Z,95555.53
2024-02-15T07:35:21.302Z,95562.44
2024-02-15T07:38:00.030Z,95560.25
2024-02-15T07:40:29.818Z,95552.25
2024-02-15T07:43:00.201Z,95550.72
2024-02-15T07:45:27.457Z,95551.66
2024-02-15T07:47:54.903Z,95548.34
2024-02-15T07:50:24.255Z,95553.25
2024-02-15T07:52:52.420Z,95546.38
2024-02-15T07:55:19.536Z,95538.06
2024-02-15T07:57:49.605Z,95544.78
2024-02-15T08:00:17.890Z,95546.00
2024-02-15T08:02:45.658Z,95553.91
2024-02-15T08:05:15.276Z,95550.75
2024-02-15T08:07:45.435Z,95555.84
2024-02-15T08:10:16.673Z,95550.53
2024-02-15T08:12:44.904Z,95545.81
2024-02-15T08:15:15.995Z,95534.66
2024-02-15T08:17:44.587Z,95546.47
2024-02-15T08:20:12.616Z,95540.09
2024-02-15T08:22:40.524Z,95539.22
2024-02-15T08:25:11.484Z,95545.28
2024-02-15T08:27:46.643Z,95529.16
2024-02-15T08:30:15.009Z,95545.19
2024-02-15T08:32:43.710Z,95541.94
2024-02-15T08:35:12.493Z,95536.63
2024-02-15T08:37:41.112Z,95531.16
2024-02-15T08:40:14.753Z,95538.41
2024-02-15T08:42:43.133Z,95542.56
2024-02-15T08:45:11.854Z,95525.69
2024-02-15T08:47:43.623Z,95537.34
2024-02-15T08:50:13.003Z,95533.53
2024-02-15T08:52:41.558Z,95535.22
2024-02-15T08:55:10.810Z,95528.78
2024-02-15T08:57:41.725Z,95536.19
2024-02-15T09:00:15.109Z,95521.72
2024-02-15T09:02:46.665Z,95531.31
2024-02-15T09:05:18.620Z,95530.09
2024-02-15T09:07:51.470Z,95520.38
2024-02-15T09:10:19.039Z,95526.19
2024-02-15T09:12:50.521Z,95520.63
2024-02-15T09:15:18.942Z,95514.78
2024-02-15T09:17:47.696Z,95517.28
2024-02-15T09:20:21.813Z,95513.84
2024-02-15T09:22:51.071Z,95518.94
2024-02-15T09:25:19.531Z,95518.31
2024-02-15T09:27:47.175Z,95516.50
2024-02-15T09:30:15.219Z,95520.19
2024-02-15T09:32:43.786Z,95514.06
2024-02-15T09:35:15.647Z,95517.53
2024-02-15T09:37:51.365Z,95509.63
2024-02-15T09:40:21.013Z,95504.91
2024-02-15T09:42:49.492Z,95502.03
2024-02-15T09:45:18.676Z,95498.78
2024-02-15T09:47:46.634Z,95503.44
2024-02-15T09:50:17.216Z,95502.38
2024-02-15T09:52:52.752Z,95507.91
2024-02-15T09:55:21.201Z,95501.84
2024-02-15T09:57:48.643Z,95498.00
2024-02-15T10:00:18.797Z,95493.88
2024-02-15T10:02:49.037Z,95493.47
2024-02-15T10:05:18.618Z,95483.00
2024-02-15T10:07:46.927Z,95486.06
2024-02-15T10:10:18.364Z,95474.88
2024-02-15T10:12:49.333Z,95473.47
2024-02-15T10:15:41.895Z,95469.59
2024-02-15T10:18:12.554Z,95469.09
2024-02-15T10:20:41.832Z,95464.41
2024-02-15T10:23:12.725Z,95464.19
2024-02-15T10:25:42.131Z,95453.75
2024-02-15T10:28:13.355Z,95455.78
2024-02-15T10:30:46.993Z,95456.97
2024-02-15T10:33:25.517Z,95453.53
2024-02-15T10:36:15.703Z,95456.44
2024-02-15T10:38:43.480Z,95450.66
2024-02-15T10:41:12.488Z,95405.84
2024-02-15T10:43:44.772Z,95442.09
2024-02-15T10:46:14.224Z,95421.88
2024-02-15T10:48:41.664Z,95434.75
2024-02-15T10:51:12.186Z,95428.72
2024-02-15T10:53:51.829Z,95428.81
2024-02-15T10:56:21.020Z,95425.84
2024-02-15T10:59:15.102Z,95415.22
2024-02-15T11:01:45.175Z,95430.84
2024-02-15T11:04:16.723Z,95415.81
2024-02-15T11:06:45.766Z,95423.59
2024-02-15T11:09:14.760Z,95421.59
2024-02-15T11:11:43.075Z,95406.75
2024-02-15T11:14:30.558Z,95418.53
2024-02-15T11:16:59.148Z,95396.41
2024-02-15T11:19:38.596Z,95415.63
2024-02-15T11:22:15.736Z,95406.13
2024-02-15T11:24:54.151Z,95408.66
2024-02-15T11:27:31.386Z,95406.16
2024-02-15T11:30:05.729Z,95408.25
2024-02-15T11:32:57.595Z,95401.28
2024-02-15T11:35:26.577Z,95400.97
2024-02-15T11:38:05.518Z,95377.28
2024-02-15T11:40:45.488Z,95401.19
2024-02-15T11:43:51.466Z,95400.63
2024-02-15T11:46:20.870Z,95383.41
2024-02-15T11:48:49.585Z,95385.00
2024-02-15T11:51:30.044Z,95394.66
2024-02-15T11:54:08.062Z,95395.13
2024-02-15T11:57:11.837Z,95386.25
2024-02-15T12:00:15.689Z,95392.44
2024-02-15T12:03:01.350Z,95386.66
2024-02-15T12:05:46.965Z,95380.78
2024-02-15T12:08:32.977Z,95373.91
2024-02-15T12:11:19.819Z,95373.16
2024-02-15T12:14:47.093Z,95379.03
2024-02-15T12:17:56.516Z,95378.94
2024-02-15T12:20:26.653Z,95373.16
2024-02-15T12:22:54.560Z,95362.66
2024-02-15T12:25:25.772Z,95371.53
2024-02-15T12:28:01.008Z,95368.94
2024-02-15T12:30:34.860Z,95361.94
2024-02-15T12:33:13.096Z,95371.38
2024-02-15T12:35:40.398Z,95349.91
2024-02-15T12:38:09.739Z,95361.72
2024-02-15T12:40:37.983Z,95356.59
2024-02-15T12:43:13.389Z,95334.53
2024-02-15T12:45:42.486Z,95365.28
2024-02-15T12:48:11.967Z,95355.66
2024-02-15T12:50:41.235Z,95357.56
2024-02-15T12:53:09.588Z,95321.00
2024-02-15T12:55:39.461Z,95360.50
2024-02-15T12:58:16.535Z,95356.19
2024-02-15T13:00:45.072Z,95353.81
2024-02-15T13:03:15.171Z,95334.22
2024-02-15T13:05:42.781Z,95343.25
2024-02-15T13:08:15.577Z,95348.66
2024-02-15T13:10:43.441Z,95338.84
2024-02-15T13:13:11.378Z,95338.72
2024-02-15T13:15:39.870Z,95338.81
2024-02-15T13:18:11.243Z,95340.00
2024-02-15T13:20:39.408Z,95338.38
2024-02-15T13:23:15.651Z,95337.22
2024-02-15T13:25:44.646Z,95341.94
2024-02-15T13:28:14.716Z,95343.25
2024-02-15T13:30:46.285Z,95342.56
2024-02-15T13:33:15.039Z,95334.66
2024-02-15T13:35:42.708Z,95338.94
2024-02-15T13:38:16.306Z,95346.94
2024-02-15T13:40:46.182Z,95324.81
2024-02-15T13:43:13.694Z,95343.22
2024-02-15T13:45:42.108Z,95334.75
2024-02-15T13:48:10.690Z,95334.66
2024-02-15T13:50:40.482Z,95339.53
2024-02-15T13:53:10.696Z,95316.47
2024-02-15T13:55:38.715Z,95333.53
2024-02-15T13:58:05.899Z,95329.69
2024-02-15T14:00:35.870Z,95338.72
2024-02-15T14:03:07.517Z,95328.75
2024-02-15T14:05:35.256Z,95336.66
2024-02-15T14:08:04.500Z,95323.09
2024-02-15T14:10:36.720Z,95322.28
2024-02-15T14:13:13.040Z,95330.50
2024-02-15T14:15:41.110Z,95339.63
2024-02-15T14:18:15.709Z,95340.78
2024-02-15T14:20:44.593Z,95347.38
2024-02-15T14:23:15.535Z,95341.06
2024-02-15T14:25:43.764Z,95348.03
2024-02-15T14:28:11.064Z,95339.97
2024-02-15T14:30:58.743Z,95340.69
2024-02-15T14:33:33.117Z,95332.13
2024-02-15T14:36:02.041Z,95334.88
2024-02-15T14:38:30.253Z,95335.97
2024-02-15T14:40:59.584Z,95323.09
2024-02-15T14:43:28.583Z,95324.22
2024-02-15T14:45:58.233Z,95330.38
2024-02-15T14:48:26.964Z,95327.47
2024-02-15T14:50:57.337Z,95334.78
2024-02-15T14:53:25.440Z,95322.06
2024-02-15T14:55:53.858Z,95340.13
2024-02-15T14:58:23.942Z,95336.16
2024-02-15T15:00:51.539Z,95330.72
2024-02-15T15:03:19.083Z,95338.25
2024-02-15T15:06:05.441Z,95333.03
2024-02-15T15:08:52.107Z,95323.31
2024-02-15T15:11:38.604Z,95335.47
2024-02-15T15:14:07.081Z,95338.00
2024-02-15T15:16:35.505Z,95336.25
2024-02-15T15:19:04.477Z,95335.66
2024-02-15T15:21:50.760Z,95337.41
2024-02-15T15:24:17.929Z,95349.81
2024-02-15T15:26:45.198Z,95343.03
2024-02-15T15:29:12.867Z,95347.34
2024-02-15T15:31:40.140Z,95342.06
2024-02-15T15:34:08.302Z,95341.75
2024-02-15T15:36:35.901Z,95331.50
2024-02-15T15:39:09.856Z,95343.81
2024-02-15T15:41:38.847Z,95354.97
2024-02-15T15:44:06.176Z,95353.34
2024-02-15T15:46:34.670Z,95355.56
2024-02-15T15:49:02.391Z,95364.91
2024-02-15T15:51:29.586Z,95366.59
2024-02-15T15:53:56.789Z,95371.53
2024-02-15T15:56:23.871Z,95367.31
2024-02-15T15:58:54.478Z,95376.47
2024-02-15T16:01:22.156Z,95371.09
2024-02-15T16:03:50.992Z,95383.72
2024-02-15T16:06:18.577Z,95380.38
2024-02-15T16:08:47.322Z,95390.00
2024-02-15T16:11:17.981Z,95400.53
2024-02-15T16:13:47.718Z,95395.13
2024-02-15T16:16:15.524Z,95398.19
2024-02-15T16:18:43.524Z,95399.63
2024-02-15T16:21:10.766Z,95405.00
2024-02-15T16:23:37.875Z,95403.22
2024-02-15T16:26:07.252Z,95411.13
2024-02-15T16:28:34.575Z,95413.63
2024-02-15T16:31:02.997Z,95417.25
2024-02-15T16:33:30.328Z,95419.63
2024-02-15T16:35:57.787Z,95424.13
2024-02-15T16:38:24.885Z,95417.47
2024-02-15T16:40:51.968Z,95430.31
2024-02-15T16:43:19.256Z,95435.22
2024-02-15T16:45:47.610Z,95433.78
2024-02-15T16:48:14.801Z,95436.44
2024-02-15T16:50:43.126Z,95442.56
2024-02-15T16:53:10.438Z,95435.22
2024-02-15T16:55:37.496Z,95444.38
2024-02-15T16:58:09.506Z,95442.56
2024-02-15T17:00:39.687Z,95449.34
2024-02-15T17:03:07.230Z,95450.16
2024-02-15T17:05:36.982Z,95453.22
2024-02-15T17:08:07.648Z,95452.44
2024-02-15T17:10:36.781Z,95456.53
2024-02-15T17:13:05.531Z,95461.06
2024-02-15T17:15:33.024Z,95463.28
2024-02-15T17:18:00.333Z,95465.94
2024-02-15T17:20:28.067Z,95468.41
2024-02-15T17:22:55.196Z,95462.50
2024-02-15T17:25:26.649Z,95470.03
2024-02-15T17:27:56.819Z,95479.19
2024-02-15T17:30:25.021Z,95478.41
2024-02-15T17:32:53.563Z,95484.53
2024-02-15T17:35:22.574Z,95475.56
2024-02-15T17:37:50.506Z,95485.34
2024-02-15T17:40:18.939Z,95484.75
2024-02-15T17:42:46.215Z,95497.41
2024-02-15T17:45:14.730Z,95481.06
2024-02-15T17:47:45.752Z,95481.28
2024-02-15T17:50:19.323Z,95493.50
2024-02-15T17:52:47.152Z,95487.19
2024-02-15T17:55:16.314Z,95491.50
2024-02-15T17:57:47.618Z,95489.63
2024-02-15T18:00:21.234Z,95477.78
2024-02-15T18:02:50.556Z,95495.72
2024-02-15T18:05:21.465Z,95491.44
2024-02-15T18:07:52.097Z,95495.09
2024-02-15T18:10:22.962Z,95481.84
2024-02-15T18:12:50.633Z,95492.22
2024-02-15T18:15:30.534Z,95486.91
2024-02-15T18:17:58.699Z,95429.63
2024-02-15T18:20:27.344Z,95509.91
2024-02-15T18:22:55.175Z,95506.84
2024-02-15T18:25:22.459Z,95499.47
2024-02-15T18:27:49.755Z,95499.88
2024-02-15T18:30:20.047Z,95495.03
2024-02-15T18:32:49.044Z,95513.75
2024-02-15T18:35:17.887Z,95512.53
2024-02-15T18:37:47.794Z,95510.91
2024-02-15T18:40:22.591Z,95504.78
2024-02-15T18:42:55.880Z,95500.47
2024-02-15T18:45:23.302Z,95519.63
2024-02-15T18:47:51.697Z,95508.56
2024-02-15T18:50:21.591Z,95516.50
2024-02-15T18:52:49.392Z,95517.25
2024-02-15T18:55:16.989Z,95521.59
2024-02-15T18:57:45.433Z,95520.22
2024-02-15T19:00:23.582Z,95518.19
2024-02-15T19:03:00.530Z,95520.72
2024-02-15T19:05:29.353Z,95517.19
2024-02-15T19:07:56.757Z,95527.56
2024-02-15T19:10:24.257Z,95524.44
2024-02-15T19:12:54.969Z,95510.84
2024-02-15T19:15:24.435Z,95520.66
2024-02-15T19:17:52.565Z,95526.13
2024-02-15T19:20:20.050Z,95519.00
2024-02-15T19:22:47.563Z,95495.53
2024-02-15T19:25:22.138Z,95526.25
2024-02-15T19:27:50.005Z,95507.50
2024-02-15T19:30:19.865Z,95521.03
2024-02-15T19:32:50.373Z,95535.50
2024-02-15T19:35:19.908Z,95522.03
2024-02-15T19:37:48.008Z,95537.06
2024-02-15T19:40:19.068Z,95527.25
2024-02-15T19:42:48.731Z,95532.53
2024-02-15T19:45:20.029Z,95533.50
2024-02-15T19:47:52.938Z,95535.34
2024-02-15T19:50:24.549Z,95540.13
2024-02-15T19:52:51.812Z,95534.94
2024-02-15T19:55:18.900Z,95537.50
2024-02-15T19:57:45.950Z,95538.50
2024-02-15T20:00:15.238Z,95539.13
2024-02-15T20:02:45.110Z,95535.19
2024-02-15T20:05:13.348Z,95537.38
2024-02-15T20:07:41.036Z,95542.44
2024-02-15T20:10:09.239Z,95538.69
2024-02-15T20:12:37.711Z,95536.63
2024-02-15T20:15:09.468Z,95542.94
2024-02-15T20:17:37.933Z,95535.44
2024-02-15T20:20:09.873Z,95548.00
2024-02-15T20:22:40.216Z,95537.22
2024-02-15T20:25:10.814Z,95543.16
2024-02-15T20:27:38.575Z,95547.31
2024-02-15T20:30:06.592Z,95542.53
2024-02-15T20:32:33.825Z,95553.53
2024-02-15T20:35:01.060Z,95547.50
2024-02-15T20:37:28.215Z,95531.50
2024-02-15T20:39:55.223Z,95546.97
2024-02-15T20:42:22.865Z,95544.13
2024-02-15T20:44:50.378Z,95540.41
2024-02-15T20:47:20.214Z,95546.31
2024-02-15T20:49:47.810Z,95529.00
2024-02-15T20:52:15.026Z,95528.53
2024-02-15T20:54:42.380Z,95548.56
2024-02-15T20:57:16.186Z,95545.75
2024-02-15T20:59:43.829Z,95542.09
2024-02-15T21:02:11.439Z,95549.53
2024-02-15T21:04:39.148Z,95532.19
2024-02-15T21:07:06.879Z,95515.81
2024-02-15T21:09:34.226Z,95544.88
2024-02-15T21:12:01.421Z,95553.22
2024-02-15T21:14:28.508Z,95551.88
2024-02-15T21:16:55.652Z,95545.25
2024-02-15T21:19:22.740Z,95541.03
2024-02-15T21:21:49.924Z,95553.06
2024-02-15T21:24:17.086Z,95544.09
2024-02-15T21:26:45.285Z,95535.56
2024-02-15T21:29:16.693Z,95538.50
2024-02-15T21:31:52.096Z,95542.88
2024-02-15T21:34:19.581Z,95547.97
2024-02-15T21:36:46.976Z,95545.59
2024-02-15T21:39:14.281Z,95542.50
2024-02-15T21:41:41.381Z,95540.31
2024-02-15T21:44:12.284Z,95557.78
2024-02-15T21:46:40.950Z,95555.69
2024-02-15T21:49:08.322Z,95553.88
2024-02-15T21:51:35.480Z,95550.06
2024-02-15T21:54:02.661Z,95558.44
2024-02-15T21:56:29.913Z,95550.31
2024-02-15T21:58:56.929Z,95523.75
2024-02-15T22:01:23.909Z,95553.81
2024-02-15T22:03:52.061Z,95550.47
2024-02-15T22:06:19.246Z,95541.00
2024-02-15T22:08:46.828Z,95550.81
2024-02-15T22:11:13.857Z,95551.00
2024-02-15T22:13:43.718Z,95554.09
2024-02-15T22:16:11.384Z,95549.34
2024-02-15T22:18:38.725Z,95557.47
2024-02-15T22:21:06.306Z,95544.72
2024-02-15T22:23:33.364Z,95558.19
2024-02-15T22:26:00.350Z,95540.84
2024-02-15T22:28:27.571Z,95542.47
2024-02-15T22:30:54.693Z,95555.28
2024-02-15T22:33:24.957Z,95553.03
2024-02-15T22:35:52.310Z,95555.09
2024-02-15T22:38:19.776Z,95547.38
2024-02-15T22:40:46.979Z,95544.38
2024-02-15T22:43:14.243Z,95540.50
2024-02-15T22:45:41.312Z,95544.66
2024-02-15T22:48:08.599Z,95550.56
2024-02-15T22:50:35.786Z,95550.75
2024-02-15T22:53:03.612Z,95547.38
2024-02-15T22:55:30.946Z,95531.94
2024-02-15T22:57:59.157Z,95544.84
2024-02-15T23:00:27.443Z,95551.56
2024-02-15T23:02:54.840Z,95548.94
2024-02-15T23:05:23.440Z,95534.41
2024-02-15T23:07:51.664Z,95545.56
2024-02-15T23:10:18.975Z,95549.41
2024-02-15T23:12:46.057Z,95548.41
2024-02-15T23:15:16.232Z,95536.22
2024-02-15T23:17:43.742Z,95552.03
2024-02-15T23:20:13.212Z,95560.66
2024-02-15T23:22:43.046Z,95534.94
2024-02-15T23:25:10.510Z,95553.28
2024-02-15T23:27:37.554Z,95552.47
2024-02-15T23:30:06.021Z,95539.94
2024-02-15T23:32:36.123Z,95548.00
2024-02-15T23:35:04.761Z,95541.38
2024-02-15T23:37:50.302Z,95548.47
2024-02-15T23:40:20.662Z,95540.91
2024-02-15T23:42:47.688Z,95551.09
2024-02-15T23:45:14.844Z,95547.00
2024-02-15T23:47:42.148Z,95559.38
2024-02-15T23:50:16.900Z,95547.28
2024-02-15T23:52:47.053Z,95555.03
2024-02-15T23:55:15.976Z,95550.47
2024-02-15T23:57:44.590Z,95552.56
